sensor_id;sensor_type;location;lat;lon;timestamp;temperature;humidity
20498;DHT22;10407;53.238;10.448;2023-02-20T00:00:52;6.20;99.90
20498;DHT22;10407;53.238;10.448;2023-02-20T00:03:20;6.30;99.90
20498;DHT22;10407;53.238;10.448;2023-02-20T00:05:47;6.40;99.90
20498;DHT22;10407;53.238;10.448;2023-02-20T00:08:15;6.30;99.90
20498;DHT22;10407;53.238;10.448;2023-02-20T00:10:42;6.40;99.90
20498;DHT22;10407;53.238;10.448;2023-02-20T00:13:10;6.50;99.90
20498;DHT22;10407;53.238;10.448;2023-02-20T00:15:37;6.50;99.90
20498;DHT22;10407;53.238;10.448;2023-02-20T00:18:05;6.40;99.90
20498;DHT22;10407;53.238;10.448;2023-02-20T00:20:33;6.30;99.90
20498;DHT22;10407;53.238;10.448;2023-02-20T00:23:01;6.30;99.90
20498;DHT22;10407;53.238;10.448;2023-02-20T00:25:29;6.30;99.90
20498;DHT22;10407;53.238;10.448;2023-02-20T00:27:56;6.50;99.90
20498;DHT22;10407;53.238;10.448;2023-02-20T00:30:24;6.50;99.90
20498;DHT22;10407;53.238;10.448;2023-02-20T00:32:54;6.70;99.90
20498;DHT22;10407;53.238;10.448;2023-02-20T00:35:23;6.60;99.90
20498;DHT22;10407;53.238;10.448;2023-02-20T00:37:51;6.50;99.90
20498;DHT22;10407;53.238;10.448;2023-02-20T00:40:21;6.70;99.90
20498;DHT22;10407;53.238;10.448;2023-02-20T00:42:49;6.80;99.90
20498;DHT22;10407;53.238;10.448;2023-02-20T00:45:17;6.70;99.90
20498;DHT22;10407;53.238;10.448;2023-02-20T00:47:45;6.90;99.90
20498;DHT22;10407;53.238;10.448;2023-02-20T00:50:14;6.80;99.90
20498;DHT22;10407;53.238;10.448;2023-02-20T00:52:42;6.80;99.90
20498;DHT22;10407;53.238;10.448;2023-02-20T00:55:10;6.70;99.90
20498;DHT22;10407;53.238;10.448;2023-02-20T00:57:37;6.70;99.90
20498;DHT22;10407;53.238;10.448;2023-02-20T01:00:06;6.80;99.90
20498;DHT22;10407;53.238;10.448;2023-02-20T01:02:34;6.80;99.90
20498;DHT22;10407;53.238;10.448;2023-02-20T01:05:02;6.60;99.90
20498;DHT22;10407;53.238;10.448;2023-02-20T01:07:29;6.80;99.90
20498;DHT22;10407;53.238;10.448;2023-02-20T01:09:57;6.80;99.90
20498;DHT22;10407;53.238;10.448;2023-02-20T01:12:24;6.80;99.90
20498;DHT22;10407;53.238;10.448;2023-02-20T01:14:52;6.80;99.90
20498;DHT22;10407;53.238;10.448;2023-02-20T01:17:20;6.80;99.90
20498;DHT22;10407;53.238;10.448;2023-02-20T01:19:47;6.80;99.90
20498;DHT22;10407;53.238;10.448;2023-02-20T01:22:15;6.50;99.90
20498;DHT22;10407;53.238;10.448;2023-02-20T01:24:42;6.60;99.90
20498;DHT22;10407;53.238;10.448;2023-02-20T01:27:10;6.80;99.90
20498;DHT22;10407;53.238;10.448;2023-02-20T01:29:37;6.60;99.90
20498;DHT22;10407;53.238;10.448;2023-02-20T01:32:05;6.80;99.90
20498;DHT22;10407;53.238;10.448;2023-02-20T01:34:32;6.90;99.90
20498;DHT22;10407;53.238;10.448;2023-02-20T01:37:00;6.70;99.90
20498;DHT22;10407;53.238;10.448;2023-02-20T01:39:28;6.60;99.90
20498;DHT22;10407;53.238;10.448;2023-02-20T01:42:02;6.50;99.90
20498;DHT22;10407;53.238;10.448;2023-02-20T01:44:33;6.50;99.90
20498;DHT22;10407;53.238;10.448;2023-02-20T01:47:05;6.60;99.90
20498;DHT22;10407;53.238;10.448;2023-02-20T01:49:35;6.70;99.90
20498;DHT22;10407;53.238;10.448;2023-02-20T01:52:10;6.40;99.90
20498;DHT22;10407;53.238;10.448;2023-02-20T01:54:38;6.70;99.90
20498;DHT22;10407;53.238;10.448;2023-02-20T01:57:11;6.80;99.90
20498;DHT22;10407;53.238;10.448;2023-02-20T01:59:39;6.90;99.90
20498;DHT22;10407;53.238;10.448;2023-02-20T02:02:08;6.80;99.90
20498;DHT22;10407;53.238;10.448;2023-02-20T02:04:36;6.90;99.90
20498;DHT22;10407;53.238;10.448;2023-02-20T02:07:05;6.80;99.90
20498;DHT22;10407;53.238;10.448;2023-02-20T02:09:48;6.60;99.90
20498;DHT22;10407;53.238;10.448;2023-02-20T02:12:15;6.80;99.90
20498;DHT22;10407;53.238;10.448;2023-02-20T02:14:43;6.90;99.90
20498;DHT22;10407;53.238;10.448;2023-02-20T02:19:58;6.90;99.90
20498;DHT22;10407;53.238;10.448;2023-02-20T02:25:25;6.80;99.90
20498;DHT22;10407;53.238;10.448;2023-02-20T02:31:19;6.50;99.90
20498;DHT22;10407;53.238;10.448;2023-02-20T02:39:19;6.60;99.90
20498;DHT22;10407;53.238;10.448;2023-02-20T02:41:57;6.60;99.90
20498;DHT22;10407;53.238;10.448;2023-02-20T02:47:22;6.60;99.90
20498;DHT22;10407;53.238;10.448;2023-02-20T02:49:56;6.80;99.90
20498;DHT22;10407;53.238;10.448;2023-02-20T02:52:24;6.70;99.90
20498;DHT22;10407;53.238;10.448;2023-02-20T02:55:08;6.70;99.90
20498;DHT22;10407;53.238;10.448;2023-02-20T02:57:35;6.70;99.90
20498;DHT22;10407;53.238;10.448;2023-02-20T03:00:06;6.70;99.90
20498;DHT22;10407;53.238;10.448;2023-02-20T03:02:38;6.70;99.90
20498;DHT22;10407;53.238;10.448;2023-02-20T03:05:05;6.60;99.90
20498;DHT22;10407;53.238;10.448;2023-02-20T03:07:36;6.60;99.90
20498;DHT22;10407;53.238;10.448;2023-02-20T03:10:07;6.80;99.90
20498;DHT22;10407;53.238;10.448;2023-02-20T03:12:37;6.90;99.90
20498;DHT22;10407;53.238;10.448;2023-02-20T03:15:09;6.70;99.90
20498;DHT22;10407;53.238;10.448;2023-02-20T03:18:14;6.80;99.90
20498;DHT22;10407;53.238;10.448;2023-02-20T03:20:47;6.80;99.90
20498;DHT22;10407;53.238;10.448;2023-02-20T03:23:21;6.80;99.90
20498;DHT22;10407;53.238;10.448;2023-02-20T03:25:53;6.80;99.90
20498;DHT22;10407;53.238;10.448;2023-02-20T03:28:25;7.00;99.90
20498;DHT22;10407;53.238;10.448;2023-02-20T03:30:58;6.70;99.90
20498;DHT22;10407;53.238;10.448;2023-02-20T03:33:40;6.80;99.90
20498;DHT22;10407;53.238;10.448;2023-02-20T03:36:36;6.90;99.90
20498;DHT22;10407;53.238;10.448;2023-02-20T03:39:24;6.90;99.90
20498;DHT22;10407;53.238;10.448;2023-02-20T03:42:11;7.00;99.90
20498;DHT22;10407;53.238;10.448;2023-02-20T03:44:59;7.10;99.90
20498;DHT22;10407;53.238;10.448;2023-02-20T03:47:30;6.90;99.90
20498;DHT22;10407;53.238;10.448;2023-02-20T03:49:58;6.90;99.90
20498;DHT22;10407;53.238;10.448;2023-02-20T03:52:26;7.00;99.90
20498;DHT22;10407;53.238;10.448;2023-02-20T03:54:54;6.90;99.90
20498;DHT22;10407;53.238;10.448;2023-02-20T03:57:27;7.10;99.90
20498;DHT22;10407;53.238;10.448;2023-02-20T03:59:58;7.10;99.90
20498;DHT22;10407;53.238;10.448;2023-02-20T04:02:28;7.00;99.90
20498;DHT22;10407;53.238;10.448;2023-02-20T04:05:03;7.10;99.90
20498;DHT22;10407;53.238;10.448;2023-02-20T04:07:34;7.10;99.90
20498;DHT22;10407;53.238;10.448;2023-02-20T04:09:59;7.20;99.90
20498;DHT22;10407;53.238;10.448;2023-02-20T04:12:32;7.00;99.90
20498;DHT22;10407;53.238;10.448;2023-02-20T04:15:00;7.00;99.90
20498;DHT22;10407;53.238;10.448;2023-02-20T04:17:31;7.10;99.90
20498;DHT22;10407;53.238;10.448;2023-02-20T04:19:59;7.10;99.90
20498;DHT22;10407;53.238;10.448;2023-02-20T04:22:30;7.00;99.90
20498;DHT22;10407;53.238;10.448;2023-02-20T04:25:09;7.10;99.90
20498;DHT22;10407;53.238;10.448;2023-02-20T04:27:32;7.20;99.90
20498;DHT22;10407;53.238;10.448;2023-02-20T04:29:59;7.20;99.90
20498;DHT22;10407;53.238;10.448;2023-02-20T04:32:27;7.00;99.90
20498;DHT22;10407;53.238;10.448;2023-02-20T04:34:55;6.90;99.90
20498;DHT22;10407;53.238;10.448;2023-02-20T04:37:23;7.00;99.90
20498;DHT22;10407;53.238;10.448;2023-02-20T04:39:50;7.00;99.90
20498;DHT22;10407;53.238;10.448;2023-02-20T04:42:18;7.10;99.90
20498;DHT22;10407;53.238;10.448;2023-02-20T04:44:45;6.90;99.90
20498;DHT22;10407;53.238;10.448;2023-02-20T04:47:15;6.80;99.90
20498;DHT22;10407;53.238;10.448;2023-02-20T04:49:43;6.90;99.90
20498;DHT22;10407;53.238;10.448;2023-02-20T04:52:11;6.70;99.90
20498;DHT22;10407;53.238;10.448;2023-02-20T04:54:39;6.80;99.90
20498;DHT22;10407;53.238;10.448;2023-02-20T04:57:06;6.90;99.90
20498;DHT22;10407;53.238;10.448;2023-02-20T04:59:34;6.80;99.90
20498;DHT22;10407;53.238;10.448;2023-02-20T05:02:01;6.90;99.90
20498;DHT22;10407;53.238;10.448;2023-02-20T05:04:29;6.70;99.90
20498;DHT22;10407;53.238;10.448;2023-02-20T05:06:57;6.70;99.90
20498;DHT22;10407;53.238;10.448;2023-02-20T05:09:24;6.80;99.90
20498;DHT22;10407;53.238;10.448;2023-02-20T05:11:52;6.80;99.90
20498;DHT22;10407;53.238;10.448;2023-02-20T05:14:21;6.90;99.90
20498;DHT22;10407;53.238;10.448;2023-02-20T05:16:48;6.80;99.90
20498;DHT22;10407;53.238;10.448;2023-02-20T05:19:17;6.90;99.90
20498;DHT22;10407;53.238;10.448;2023-02-20T05:21:45;6.90;99.90
20498;DHT22;10407;53.238;10.448;2023-02-20T05:24:31;6.90;99.90
20498;DHT22;10407;53.238;10.448;2023-02-20T05:26:59;6.90;99.90
20498;DHT22;10407;53.238;10.448;2023-02-20T05:29:26;7.00;99.90
20498;DHT22;10407;53.238;10.448;2023-02-20T05:31:54;7.00;99.90
20498;DHT22;10407;53.238;10.448;2023-02-20T05:34:21;6.90;99.90
20498;DHT22;10407;53.238;10.448;2023-02-20T05:36:51;7.00;99.90
20498;DHT22;10407;53.238;10.448;2023-02-20T05:39:19;7.00;99.90
20498;DHT22;10407;53.238;10.448;2023-02-20T05:41:47;7.00;99.90
20498;DHT22;10407;53.238;10.448;2023-02-20T05:44:15;6.90;99.90
20498;DHT22;10407;53.238;10.448;2023-02-20T05:46:42;7.00;99.90
20498;DHT22;10407;53.238;10.448;2023-02-20T05:49:10;7.00;99.90
20498;DHT22;10407;53.238;10.448;2023-02-20T05:51:38;7.00;99.90
20498;DHT22;10407;53.238;10.448;2023-02-20T05:54:06;6.90;99.90
20498;DHT22;10407;53.238;10.448;2023-02-20T05:56:33;7.00;99.90
20498;DHT22;10407;53.238;10.448;2023-02-20T05:59:01;7.10;99.90
20498;DHT22;10407;53.238;10.448;2023-02-20T06:01:30;6.90;99.90
20498;DHT22;10407;53.238;10.448;2023-02-20T06:03:58;7.00;99.90
20498;DHT22;10407;53.238;10.448;2023-02-20T06:06:35;6.90;99.90
20498;DHT22;10407;53.238;10.448;2023-02-20T06:09:04;6.90;99.90
20498;DHT22;10407;53.238;10.448;2023-02-20T06:11:34;7.00;99.90
20498;DHT22;10407;53.238;10.448;2023-02-20T06:14:02;7.00;99.90
20498;DHT22;10407;53.238;10.448;2023-02-20T06:16:31;7.00;99.90
20498;DHT22;10407;53.238;10.448;2023-02-20T06:18:58;7.10;99.90
20498;DHT22;10407;53.238;10.448;2023-02-20T06:21:26;7.10;99.90
20498;DHT22;10407;53.238;10.448;2023-02-20T06:23:54;7.10;99.90
20498;DHT22;10407;53.238;10.448;2023-02-20T06:26:22;7.10;99.90
20498;DHT22;10407;53.238;10.448;2023-02-20T06:28:49;7.20;99.90
20498;DHT22;10407;53.238;10.448;2023-02-20T06:31:24;7.10;99.90
20498;DHT22;10407;53.238;10.448;2023-02-20T06:33:52;6.90;99.90
20498;DHT22;10407;53.238;10.448;2023-02-20T06:36:27;7.10;99.90
20498;DHT22;10407;53.238;10.448;2023-02-20T06:38:51;7.10;99.90
20498;DHT22;10407;53.238;10.448;2023-02-20T06:41:19;7.20;99.90
20498;DHT22;10407;53.238;10.448;2023-02-20T06:43:47;7.10;99.90
20498;DHT22;10407;53.238;10.448;2023-02-20T06:46:14;7.20;99.90
20498;DHT22;10407;53.238;10.448;2023-02-20T06:48:48;7.10;99.90
20498;DHT22;10407;53.238;10.448;2023-02-20T06:51:20;7.10;99.90
20498;DHT22;10407;53.238;10.448;2023-02-20T06:53:47;7.20;99.90
20498;DHT22;10407;53.238;10.448;2023-02-20T06:56:17;7.10;99.90
20498;DHT22;10407;53.238;10.448;2023-02-20T06:58:46;7.20;99.90
20498;DHT22;10407;53.238;10.448;2023-02-20T07:01:15;7.20;99.90
20498;DHT22;10407;53.238;10.448;2023-02-20T07:03:44;7.20;99.90
20498;DHT22;10407;53.238;10.448;2023-02-20T07:06:12;7.10;99.90
20498;DHT22;10407;53.238;10.448;2023-02-20T07:08:40;7.20;99.90
20498;DHT22;10407;53.238;10.448;2023-02-20T07:11:07;7.10;99.90
20498;DHT22;10407;53.238;10.448;2023-02-20T07:13:35;7.30;99.90
20498;DHT22;10407;53.238;10.448;2023-02-20T07:16:03;7.30;99.90
20498;DHT22;10407;53.238;10.448;2023-02-20T07:18:31;7.20;99.90
20498;DHT22;10407;53.238;10.448;2023-02-20T07:20:58;7.40;99.90
20498;DHT22;10407;53.238;10.448;2023-02-20T07:23:26;7.40;99.90
20498;DHT22;10407;53.238;10.448;2023-02-20T07:25:53;7.60;99.90
20498;DHT22;10407;53.238;10.448;2023-02-20T07:28:21;7.70;99.90
20498;DHT22;10407;53.238;10.448;2023-02-20T07:30:50;7.60;99.90
20498;DHT22;10407;53.238;10.448;2023-02-20T07:33:18;7.60;99.90
20498;DHT22;10407;53.238;10.448;2023-02-20T07:35:46;7.60;99.90
20498;DHT22;10407;53.238;10.448;2023-02-20T07:38:13;7.70;99.90
20498;DHT22;10407;53.238;10.448;2023-02-20T07:40:41;7.70;99.90
20498;DHT22;10407;53.238;10.448;2023-02-20T07:43:09;7.70;99.90
20498;DHT22;10407;53.238;10.448;2023-02-20T07:45:37;7.80;99.90
20498;DHT22;10407;53.238;10.448;2023-02-20T07:48:05;7.70;99.90
20498;DHT22;10407;53.238;10.448;2023-02-20T07:50:33;7.70;99.90
20498;DHT22;10407;53.238;10.448;2023-02-20T07:53:01;7.80;99.90
20498;DHT22;10407;53.238;10.448;2023-02-20T07:55:28;7.80;99.90
20498;DHT22;10407;53.238;10.448;2023-02-20T07:57:56;7.70;99.90
20498;DHT22;10407;53.238;10.448;2023-02-20T08:00:25;7.70;99.90
20498;DHT22;10407;53.238;10.448;2023-02-20T08:02:52;7.70;99.90
20498;DHT22;10407;53.238;10.448;2023-02-20T08:05:20;7.70;99.90
20498;DHT22;10407;53.238;10.448;2023-02-20T08:07:49;7.80;99.90
20498;DHT22;10407;53.238;10.448;2023-02-20T08:10:19;7.70;99.90
20498;DHT22;10407;53.238;10.448;2023-02-20T08:12:48;7.80;99.90
20498;DHT22;10407;53.238;10.448;2023-02-20T08:15:18;7.80;99.90
20498;DHT22;10407;53.238;10.448;2023-02-20T08:17:46;7.80;99.90
20498;DHT22;10407;53.238;10.448;2023-02-20T08:20:15;7.80;99.90
20498;DHT22;10407;53.238;10.448;2023-02-20T08:22:45;7.70;99.90
20498;DHT22;10407;53.238;10.448;2023-02-20T08:25:14;7.80;99.90
20498;DHT22;10407;53.238;10.448;2023-02-20T08:27:44;7.70;99.90
20498;DHT22;10407;53.238;10.448;2023-02-20T08:30:26;7.70;99.90
20498;DHT22;10407;53.238;10.448;2023-02-20T08:32:54;7.70;99.90
20498;DHT22;10407;53.238;10.448;2023-02-20T08:35:22;7.80;99.90
20498;DHT22;10407;53.238;10.448;2023-02-20T08:37:53;7.70;99.90
20498;DHT22;10407;53.238;10.448;2023-02-20T08:40:20;7.80;99.90
20498;DHT22;10407;53.238;10.448;2023-02-20T08:42:51;7.70;99.90
20498;DHT22;10407;53.238;10.448;2023-02-20T08:45:20;7.60;99.90
20498;DHT22;10407;53.238;10.448;2023-02-20T08:47:48;7.80;99.90
20498;DHT22;10407;53.238;10.448;2023-02-20T08:50:17;7.70;99.90
20498;DHT22;10407;53.238;10.448;2023-02-20T08:52:45;7.80;99.90
20498;DHT22;10407;53.238;10.448;2023-02-20T08:55:12;7.80;99.90
20498;DHT22;10407;53.238;10.448;2023-02-20T08:57:42;7.70;99.90
20498;DHT22;10407;53.238;10.448;2023-02-20T09:00:12;7.70;99.90
20498;DHT22;10407;53.238;10.448;2023-02-20T09:02:40;7.60;99.90
20498;DHT22;10407;53.238;10.448;2023-02-20T09:05:08;7.60;99.90
20498;DHT22;10407;53.238;10.448;2023-02-20T09:07:35;7.70;99.90
20498;DHT22;10407;53.238;10.448;2023-02-20T09:10:03;7.70;99.90
20498;DHT22;10407;53.238;10.448;2023-02-20T09:12:31;7.70;99.90
20498;DHT22;10407;53.238;10.448;2023-02-20T09:14:58;7.70;99.90
20498;DHT22;10407;53.238;10.448;2023-02-20T09:17:27;7.70;99.90
20498;DHT22;10407;53.238;10.448;2023-02-20T09:19:55;7.60;99.90
20498;DHT22;10407;53.238;10.448;2023-02-20T09:22:23;7.70;99.90
20498;DHT22;10407;53.238;10.448;2023-02-20T09:24:53;7.60;99.90
20498;DHT22;10407;53.238;10.448;2023-02-20T09:27:21;7.80;99.90
20498;DHT22;10407;53.238;10.448;2023-02-20T09:29:49;7.70;99.90
20498;DHT22;10407;53.238;10.448;2023-02-20T09:32:16;7.80;99.90
20498;DHT22;10407;53.238;10.448;2023-02-20T09:34:44;7.70;99.90
20498;DHT22;10407;53.238;10.448;2023-02-20T09:37:12;7.70;99.90
20498;DHT22;10407;53.238;10.448;2023-02-20T09:39:40;7.70;99.90
20498;DHT22;10407;53.238;10.448;2023-02-20T09:42:45;7.80;99.90
20498;DHT22;10407;53.238;10.448;2023-02-20T09:45:02;7.60;99.90
20498;DHT22;10407;53.238;10.448;2023-02-20T09:50:21;7.70;99.90
20498;DHT22;10407;53.238;10.448;2023-02-20T09:52:44;7.60;99.90
20498;DHT22;10407;53.238;10.448;2023-02-20T09:55:14;7.70;99.90
20498;DHT22;10407;53.238;10.448;2023-02-20T09:57:47;7.80;99.90
20498;DHT22;10407;53.238;10.448;2023-02-20T10:00:26;7.80;99.90
20498;DHT22;10407;53.238;10.448;2023-02-20T10:05:31;8.00;99.90
20498;DHT22;10407;53.238;10.448;2023-02-20T10:08:00;7.90;99.90
20498;DHT22;10407;53.238;10.448;2023-02-20T10:10:30;7.90;99.90
20498;DHT22;10407;53.238;10.448;2023-02-20T10:15:53;7.60;99.90
20498;DHT22;10407;53.238;10.448;2023-02-20T10:18:50;7.70;99.90
20498;DHT22;10407;53.238;10.448;2023-02-20T10:25:08;7.80;99.90
20498;DHT22;10407;53.238;10.448;2023-02-20T10:26:53;7.80;99.90
20498;DHT22;10407;53.238;10.448;2023-02-20T10:29:26;7.80;99.90
20498;DHT22;10407;53.238;10.448;2023-02-20T10:37:23;8.10;99.90
20498;DHT22;10407;53.238;10.448;2023-02-20T10:39:59;7.90;99.90
20498;DHT22;10407;53.238;10.448;2023-02-20T10:42:31;7.90;99.90
20498;DHT22;10407;53.238;10.448;2023-02-20T10:45:23;8.10;99.90
20498;DHT22;10407;53.238;10.448;2023-02-20T10:47:58;8.10;99.90
20498;DHT22;10407;53.238;10.448;2023-02-20T10:50:24;8.10;99.90
20498;DHT22;10407;53.238;10.448;2023-02-20T10:52:58;8.10;99.90
20498;DHT22;10407;53.238;10.448;2023-02-20T10:58:36;8.20;99.90
20498;DHT22;10407;53.238;10.448;2023-02-20T11:01:21;8.10;99.90
20498;DHT22;10407;53.238;10.448;2023-02-20T11:04:10;8.10;99.90
20498;DHT22;10407;53.238;10.448;2023-02-20T11:06:49;8.20;99.90
20498;DHT22;10407;53.238;10.448;2023-02-20T11:09:12;8.20;99.90
20498;DHT22;10407;53.238;10.448;2023-02-20T11:11:43;8.30;99.90
20498;DHT22;10407;53.238;10.448;2023-02-20T11:14:19;8.30;99.90
20498;DHT22;10407;53.238;10.448;2023-02-20T11:17:08;8.30;99.90
20498;DHT22;10407;53.238;10.448;2023-02-20T11:19:55;8.30;99.90
20498;DHT22;10407;53.238;10.448;2023-02-20T11:22:45;8.30;99.90
20498;DHT22;10407;53.238;10.448;2023-02-20T11:25:17;8.30;99.90
20498;DHT22;10407;53.238;10.448;2023-02-20T11:27:50;8.40;99.90
20498;DHT22;10407;53.238;10.448;2023-02-20T11:30:28;8.40;99.90
20498;DHT22;10407;53.238;10.448;2023-02-20T11:33:03;8.40;99.90
20498;DHT22;10407;53.238;10.448;2023-02-20T11:35:38;8.50;99.90
20498;DHT22;10407;53.238;10.448;2023-02-20T11:43:29;8.40;99.90
20498;DHT22;10407;53.238;10.448;2023-02-20T11:46:17;8.40;99.90
20498;DHT22;10407;53.238;10.448;2023-02-20T11:49:08;8.50;99.90
20498;DHT22;10407;53.238;10.448;2023-02-20T11:51:46;8.60;99.90
20498;DHT22;10407;53.238;10.448;2023-02-20T12:05:00;8.70;99.90
20498;DHT22;10407;53.238;10.448;2023-02-20T12:07:43;8.70;99.90
20498;DHT22;10407;53.238;10.448;2023-02-20T12:10:26;8.70;99.90
20498;DHT22;10407;53.238;10.448;2023-02-20T12:12:53;8.80;99.90
20498;DHT22;10407;53.238;10.448;2023-02-20T12:15:23;8.70;99.90
20498;DHT22;10407;53.238;10.448;2023-02-20T12:20:24;8.80;99.90
20498;DHT22;10407;53.238;10.448;2023-02-20T12:25:51;8.80;99.90
20498;DHT22;10407;53.238;10.448;2023-02-20T12:34:29;9.00;99.90
20498;DHT22;10407;53.238;10.448;2023-02-20T12:37:07;9.00;99.90
20498;DHT22;10407;53.238;10.448;2023-02-20T12:40:08;9.10;99.90
20498;DHT22;10407;53.238;10.448;2023-02-20T12:42:56;9.00;99.90
20498;DHT22;10407;53.238;10.448;2023-02-20T12:45:15;9.10;99.90
20498;DHT22;10407;53.238;10.448;2023-02-20T12:47:43;9.20;99.90
20498;DHT22;10407;53.238;10.448;2023-02-20T12:58:39;9.20;99.90
20498;DHT22;10407;53.238;10.448;2023-02-20T13:01:11;9.20;99.90
20498;DHT22;10407;53.238;10.448;2023-02-20T13:06:37;9.30;99.90
20498;DHT22;10407;53.238;10.448;2023-02-20T13:11:43;9.30;99.90
20498;DHT22;10407;53.238;10.448;2023-02-20T13:14:18;9.30;99.90
20498;DHT22;10407;53.238;10.448;2023-02-20T13:17:12;9.20;99.90
20498;DHT22;10407;53.238;10.448;2023-02-20T13:19:42;9.30;99.90
20498;DHT22;10407;53.238;10.448;2023-02-20T13:22:10;9.30;99.90
20498;DHT22;10407;53.238;10.448;2023-02-20T13:24:39;9.30;99.90
20498;DHT22;10407;53.238;10.448;2023-02-20T13:27:08;9.40;99.90
20498;DHT22;10407;53.238;10.448;2023-02-20T13:29:38;9.30;99.90
20498;DHT22;10407;53.238;10.448;2023-02-20T13:34:47;9.30;99.90
20498;DHT22;10407;53.238;10.448;2023-02-20T13:45:42;9.40;99.90
20498;DHT22;10407;53.238;10.448;2023-02-20T13:53:56;9.50;99.90
20498;DHT22;10407;53.238;10.448;2023-02-20T13:56:26;9.50;99.90
20498;DHT22;10407;53.238;10.448;2023-02-20T13:58:56;9.40;99.90
20498;DHT22;10407;53.238;10.448;2023-02-20T14:01:25;9.40;99.90
20498;DHT22;10407;53.238;10.448;2023-02-20T14:04:03;9.40;99.90
20498;DHT22;10407;53.238;10.448;2023-02-20T14:06:31;9.50;99.90
20498;DHT22;10407;53.238;10.448;2023-02-20T14:09:12;9.50;99.90
20498;DHT22;10407;53.238;10.448;2023-02-20T14:11:39;9.50;99.90
20498;DHT22;10407;53.238;10.448;2023-02-20T14:14:09;9.50;99.90
20498;DHT22;10407;53.238;10.448;2023-02-20T14:16:40;9.40;99.90
20498;DHT22;10407;53.238;10.448;2023-02-20T14:19:21;9.50;99.90
20498;DHT22;10407;53.238;10.448;2023-02-20T14:21:45;9.40;99.90
20498;DHT22;10407;53.238;10.448;2023-02-20T14:24:25;9.40;99.90
20498;DHT22;10407;53.238;10.448;2023-02-20T14:26:54;9.40;99.90
20498;DHT22;10407;53.238;10.448;2023-02-20T14:29:28;9.40;99.90
20498;DHT22;10407;53.238;10.448;2023-02-20T14:31:59;9.40;99.90
20498;DHT22;10407;53.238;10.448;2023-02-20T14:37:15;9.40;99.90
20498;DHT22;10407;53.238;10.448;2023-02-20T14:39:50;9.40;99.90
20498;DHT22;10407;53.238;10.448;2023-02-20T14:42:16;9.40;99.90
20498;DHT22;10407;53.238;10.448;2023-02-20T14:44:54;9.40;99.90
20498;DHT22;10407;53.238;10.448;2023-02-20T14:47:20;9.40;99.90
20498;DHT22;10407;53.238;10.448;2023-02-20T14:49:49;9.40;99.90
20498;DHT22;10407;53.238;10.448;2023-02-20T14:52:20;9.40;99.90
20498;DHT22;10407;53.238;10.448;2023-02-20T14:54:59;9.40;99.90
20498;DHT22;10407;53.238;10.448;2023-02-20T14:57:28;9.40;99.90
20498;DHT22;10407;53.238;10.448;2023-02-20T15:02:51;9.40;99.90
20498;DHT22;10407;53.238;10.448;2023-02-20T15:05:29;9.40;99.90
20498;DHT22;10407;53.238;10.448;2023-02-20T15:08:01;9.40;99.90
20498;DHT22;10407;53.238;10.448;2023-02-20T15:10:44;9.40;99.90
20498;DHT22;10407;53.238;10.448;2023-02-20T15:13:16;9.40;99.90
20498;DHT22;10407;53.238;10.448;2023-02-20T15:15:49;9.40;99.90
20498;DHT22;10407;53.238;10.448;2023-02-20T15:18:32;9.40;99.90
20498;DHT22;10407;53.238;10.448;2023-02-20T15:21:00;9.40;99.90
20498;DHT22;10407;53.238;10.448;2023-02-20T15:23:31;9.40;99.90
20498;DHT22;10407;53.238;10.448;2023-02-20T15:28:46;9.40;99.90
20498;DHT22;10407;53.238;10.448;2023-02-20T15:31:19;9.40;99.90
20498;DHT22;10407;53.238;10.448;2023-02-20T15:33:52;9.40;99.90
20498;DHT22;10407;53.238;10.448;2023-02-20T15:36:22;9.50;99.90
20498;DHT22;10407;53.238;10.448;2023-02-20T15:38:55;9.40;99.90
20498;DHT22;10407;53.238;10.448;2023-02-20T15:41:24;9.40;99.90
20498;DHT22;10407;53.238;10.448;2023-02-20T15:43:52;9.40;99.90
20498;DHT22;10407;53.238;10.448;2023-02-20T15:46:19;9.40;99.90
20498;DHT22;10407;53.238;10.448;2023-02-20T15:48:47;9.40;99.90
20498;DHT22;10407;53.238;10.448;2023-02-20T15:51:18;9.50;99.90
20498;DHT22;10407;53.238;10.448;2023-02-20T15:53:46;9.50;99.90
20498;DHT22;10407;53.238;10.448;2023-02-20T15:56:14;9.50;99.90
20498;DHT22;10407;53.238;10.448;2023-02-20T15:58:43;9.50;99.90
20498;DHT22;10407;53.238;10.448;2023-02-20T16:01:11;9.50;99.90
20498;DHT22;10407;53.238;10.448;2023-02-20T16:03:39;9.50;99.90
20498;DHT22;10407;53.238;10.448;2023-02-20T16:06:06;9.50;99.90
20498;DHT22;10407;53.238;10.448;2023-02-20T16:08:34;9.50;99.90
20498;DHT22;10407;53.238;10.448;2023-02-20T16:11:02;9.50;99.90
20498;DHT22;10407;53.238;10.448;2023-02-20T16:13:37;9.40;99.90
20498;DHT22;10407;53.238;10.448;2023-02-20T16:16:20;9.40;99.90
20498;DHT22;10407;53.238;10.448;2023-02-20T16:18:48;9.40;99.90
20498;DHT22;10407;53.238;10.448;2023-02-20T16:21:19;9.40;99.90
20498;DHT22;10407;53.238;10.448;2023-02-20T16:23:47;9.40;99.90
20498;DHT22;10407;53.238;10.448;2023-02-20T16:26:25;9.40;99.90
20498;DHT22;10407;53.238;10.448;2023-02-20T16:29:01;9.40;99.90
20498;DHT22;10407;53.238;10.448;2023-02-20T16:34:24;9.40;99.90
20498;DHT22;10407;53.238;10.448;2023-02-20T16:36:52;9.40;99.90
20498;DHT22;10407;53.238;10.448;2023-02-20T16:39:20;9.40;99.90
20498;DHT22;10407;53.238;10.448;2023-02-20T16:41:48;9.40;99.90
20498;DHT22;10407;53.238;10.448;2023-02-20T16:44:36;9.30;99.90
20498;DHT22;10407;53.238;10.448;2023-02-20T16:47:04;9.30;99.90
20498;DHT22;10407;53.238;10.448;2023-02-20T16:49:32;9.30;99.90
20498;DHT22;10407;53.238;10.448;2023-02-20T16:52:01;9.30;99.90
20498;DHT22;10407;53.238;10.448;2023-02-20T16:54:30;9.30;99.90
20498;DHT22;10407;53.238;10.448;2023-02-20T16:56:58;9.30;99.90
20498;DHT22;10407;53.238;10.448;2023-02-20T16:59:26;9.30;99.90
20498;DHT22;10407;53.238;10.448;2023-02-20T17:01:53;9.30;99.90
20498;DHT22;10407;53.238;10.448;2023-02-20T17:04:21;9.30;99.90
20498;DHT22;10407;53.238;10.448;2023-02-20T17:06:48;9.30;99.90
20498;DHT22;10407;53.238;10.448;2023-02-20T17:09:16;9.30;99.90
20498;DHT22;10407;53.238;10.448;2023-02-20T17:11:43;9.20;99.90
20498;DHT22;10407;53.238;10.448;2023-02-20T17:14:11;9.20;99.90
20498;DHT22;10407;53.238;10.448;2023-02-20T17:16:41;9.30;99.90
20498;DHT22;10407;53.238;10.448;2023-02-20T17:19:10;9.30;99.90
20498;DHT22;10407;53.238;10.448;2023-02-20T17:21:38;9.30;99.90
20498;DHT22;10407;53.238;10.448;2023-02-20T17:24:05;9.30;99.90
20498;DHT22;10407;53.238;10.448;2023-02-20T17:26:35;9.30;99.90
20498;DHT22;10407;53.238;10.448;2023-02-20T17:29:02;9.30;99.90
20498;DHT22;10407;53.238;10.448;2023-02-20T17:31:30;9.30;99.90
20498;DHT22;10407;53.238;10.448;2023-02-20T17:33:57;9.30;99.90
20498;DHT22;10407;53.238;10.448;2023-02-20T17:36:25;9.30;99.90
20498;DHT22;10407;53.238;10.448;2023-02-20T17:38:52;9.30;99.90